createdAt,value
2022-10-19T00:01:19.808Z,3.53
2022-10-19T00:06:32.139Z,3.47
2022-10-19T00:09:09.780Z,3.50
2022-10-19T00:11:40.557Z,3.55
2022-10-19T00:14:09.057Z,3.38
2022-10-19T00:16:38.868Z,3.70
2022-10-19T00:19:09.307Z,2.90
2022-10-19T00:21:36.491Z,3.42
2022-10-19T00:24:03.548Z,3.42
2022-10-19T00:26:30.486Z,3.05
2022-10-19T00:28:58.174Z,3.25
2022-10-19T00:31:26.493Z,3.35
2022-10-19T00:33:55.707Z,3.78
2022-10-19T00:36:25.688Z,3.60
2022-10-19T00:38:53.605Z,3.28
2022-10-19T00:41:22.257Z,3.35
2022-10-19T00:44:00.727Z,3.50
2022-10-19T00:46:31.029Z,3.30
2022-10-19T00:49:09.849Z,3.08
2022-10-19T00:51:41.889Z,3.08
2022-10-19T00:54:09.757Z,3.45
2022-10-19T00:56:41.230Z,3.20
2022-10-19T00:59:10.107Z,3.15
2022-10-19T01:01:37.408Z,3.08
2022-10-19T01:04:05.870Z,2.88
2022-10-19T01:06:34.338Z,2.90
2022-10-19T01:09:01.268Z,3.00
2022-10-19T01:11:39.365Z,2.75
2022-10-19T01:14:26.010Z,3.17
2022-10-19T01:17:11.545Z,3.05
2022-10-19T01:19:57.518Z,3.00
2022-10-19T01:22:43.967Z,2.80
2022-10-19T01:25:21.899Z,3.28
2022-10-19T01:28:09.092Z,2.90
2022-10-19T01:33:24.947Z,2.95
2022-10-19T01:36:07.456Z,2.80
2022-10-19T01:38:46.138Z,2.92
2022-10-19T01:41:21.218Z,2.85
2022-10-19T01:44:08.350Z,2.78
2022-10-19T01:49:21.402Z,2.80
2022-10-19T01:51:55.720Z,3.58
2022-10-19T01:54:26.867Z,3.20
2022-10-19T01:56:56.558Z,2.95
2022-10-19T01:59:24.117Z,2.95
2022-10-19T02:01:53.751Z,3.30
2022-10-19T02:04:24.202Z,3.53
2022-10-19T02:06:53.037Z,3.00
2022-10-19T02:09:21.038Z,2.90
2022-10-19T02:11:57.038Z,3.45
2022-10-19T02:14:30.636Z,2.83
2022-10-19T02:17:05.537Z,2.65
2022-10-19T02:19:32.358Z,3.05
2022-10-19T02:22:00.090Z,3.85
2022-10-19T02:24:26.971Z,3.25
2022-10-19T02:26:55.168Z,3.50
2022-10-19T02:29:22.692Z,3.40
2022-10-19T02:31:49.782Z,2.97
2022-10-19T02:34:16.745Z,2.67
2022-10-19T02:36:43.767Z,3.80
2022-10-19T02:39:10.758Z,2.95
2022-10-19T02:41:50.171Z,3.47
2022-10-19T02:44:26.308Z,4.13
2022-10-19T02:47:02.557Z,3.22
2022-10-19T02:49:30.888Z,3.25
2022-10-19T02:52:01.809Z,3.05
2022-10-19T02:54:29.717Z,3.00
2022-10-19T02:56:57.367Z,2.72
2022-10-19T02:59:25.108Z,3.22
2022-10-19T03:01:52.708Z,3.03
2022-10-19T03:04:19.580Z,2.95
2022-10-19T03:06:46.448Z,2.85
2022-10-19T03:09:13.309Z,3.03
2022-10-19T03:11:40.127Z,2.72
2022-10-19T03:14:06.957Z,3.22
2022-10-19T03:16:33.807Z,2.78
2022-10-19T03:19:00.661Z,3.08
2022-10-19T03:21:27.527Z,2.88
2022-10-19T03:23:54.727Z,3.22
2022-10-19T03:26:21.759Z,2.97
2022-10-19T03:28:48.597Z,2.63
2022-10-19T03:31:15.428Z,3.20
2022-10-19T03:33:42.314Z,2.70
2022-10-19T03:36:21.768Z,3.03
2022-10-19T03:38:59.598Z,2.88
2022-10-19T03:41:29.347Z,2.80
2022-10-19T03:43:57.397Z,3.22
2022-10-19T03:46:25.079Z,2.13
2022-10-19T03:48:52.168Z,2.85
2022-10-19T03:51:23.658Z,2.90
2022-10-19T03:53:58.171Z,2.75
2022-10-19T03:56:27.179Z,3.00
2022-10-19T03:58:55.731Z,2.83
2022-10-19T04:01:25.599Z,2.10
2022-10-19T04:04:03.823Z,2.67
2022-10-19T04:06:34.768Z,3.20
2022-10-19T04:09:02.351Z,3.30
2022-10-19T04:11:30.862Z,3.17
2022-10-19T04:13:59.067Z,2.65
2022-10-19T04:16:28.167Z,3.08
2022-10-19T04:18:55.431Z,2.90
2022-10-19T04:21:23.171Z,3.00
2022-10-19T04:23:52.494Z,3.22
2022-10-19T04:26:20.036Z,3.00
2022-10-19T04:28:47.278Z,3.20
2022-10-19T04:31:14.178Z,3.13
2022-10-19T04:33:41.880Z,3.58
2022-10-19T04:36:11.318Z,3.90
2022-10-19T04:38:39.510Z,3.47
2022-10-19T04:41:13.108Z,3.70
2022-10-19T04:43:40.008Z,3.08
2022-10-19T04:46:10.263Z,3.45
2022-10-19T04:48:38.879Z,3.30
2022-10-19T04:51:06.657Z,3.38
2022-10-19T04:53:34.815Z,3.47
2022-10-19T04:56:06.208Z,3.05
2022-10-19T04:58:33.547Z,3.20
2022-10-19T05:01:07.283Z,3.33
2022-10-19T05:03:34.149Z,3.70
2022-10-19T05:06:01.134Z,3.67
2022-10-19T05:08:27.921Z,3.63
2022-10-19T05:10:54.750Z,3.83
2022-10-19T05:13:21.548Z,3.47
2022-10-19T05:15:58.135Z,3.67
2022-10-19T05:20:51.938Z,2.95
2022-10-19T05:23:18.791Z,3.75
2022-10-19T05:25:45.739Z,3.75
2022-10-19T05:28:12.631Z,4.15
2022-10-19T05:30:39.637Z,3.35
2022-10-19T05:33:06.526Z,3.40
2022-10-19T05:35:33.361Z,3.30
2022-10-19T05:38:00.203Z,3.20
2022-10-19T05:40:27.667Z,3.80
2022-10-19T05:42:57.076Z,3.75
2022-10-19T05:45:23.911Z,4.57
2022-10-19T05:47:50.746Z,3.55
2022-10-19T05:50:17.788Z,4.22
2022-10-19T05:52:44.651Z,4.57
2022-10-19T05:55:11.530Z,4.07
2022-10-19T05:57:38.485Z,4.53
2022-10-19T06:00:05.823Z,4.30
2022-10-19T06:02:32.673Z,4.53
2022-10-19T06:04:59.458Z,4.18
2022-10-19T06:07:26.328Z,4.57
2022-10-19T06:09:53.191Z,5.00
2022-10-19T06:12:24.256Z,4.65
2022-10-19T06:14:52.190Z,5.28
2022-10-19T06:17:19.067Z,5.47
2022-10-19T06:19:45.877Z,4.68
2022-10-19T06:22:12.677Z,5.78
2022-10-19T06:24:40.541Z,4.82
2022-10-19T06:27:08.829Z,5.15
2022-10-19T06:29:36.012Z,5.88
2022-10-19T06:32:02.869Z,5.45
2022-10-19T06:34:29.734Z,5.50
2022-10-19T06:36:56.605Z,4.35
2022-10-19T06:39:23.447Z,5.30
2022-10-19T06:41:50.347Z,6.20
2022-10-19T06:44:17.168Z,5.55
2022-10-19T06:46:44.019Z,5.32
2022-10-19T06:49:13.851Z,6.07
2022-10-19T06:51:41.078Z,5.15
2022-10-19T06:54:08.606Z,5.60
2022-10-19T06:56:35.538Z,5.60
2022-10-19T06:59:02.814Z,6.18
2022-10-19T07:01:33.436Z,5.68
2022-10-19T07:04:03.269Z,6.07
2022-10-19T07:06:30.299Z,5.07
2022-10-19T07:08:57.348Z,5.68
2022-10-19T07:11:24.283Z,6.65
2022-10-19T07:13:53.060Z,5.35
2022-10-19T07:16:21.764Z,5.88
2022-10-19T07:18:51.366Z,6.13
2022-10-19T07:21:20.283Z,5.72
2022-10-19T07:23:48.112Z,6.07
2022-10-19T07:26:17.380Z,5.53
2022-10-19T07:28:46.636Z,5.72
2022-10-19T07:31:18.160Z,5.80
2022-10-19T07:33:45.329Z,6.10
2022-10-19T07:36:14.071Z,5.60
2022-10-19T07:38:41.275Z,5.82
2022-10-19T07:41:12.890Z,5.95
2022-10-19T07:43:40.781Z,5.13
2022-10-19T07:46:12.865Z,5.15
2022-10-19T07:48:39.978Z,5.47
2022-10-19T07:51:08.669Z,37.35
2022-10-19T07:53:36.496Z,5.72
2022-10-19T07:56:05.606Z,4.68
2022-10-19T07:58:32.698Z,5.30
2022-10-19T08:01:01.691Z,5.32
2022-10-19T08:04:14.247Z,5.65
2022-10-19T08:08:46.530Z,4.97
2022-10-19T08:11:16.530Z,5.43
2022-10-19T08:13:43.791Z,4.72
2022-10-19T08:16:20.886Z,4.88
2022-10-19T08:18:47.784Z,4.72
2022-10-19T08:21:14.569Z,4.78
2022-10-19T08:23:41.665Z,5.32
2022-10-19T08:26:08.586Z,4.40
2022-10-19T08:28:35.401Z,5.47
2022-10-19T08:31:11.739Z,4.72
2022-10-19T08:33:38.651Z,4.80
2022-10-19T08:36:07.300Z,4.75
2022-10-19T08:38:36.403Z,5.32
2022-10-19T08:41:13.849Z,4.85
2022-10-19T08:43:55.611Z,4.80
2022-10-19T08:46:30.387Z,5.13
2022-10-19T08:48:57.296Z,5.13
2022-10-19T08:51:24.769Z,5.13
2022-10-19T08:53:55.041Z,5.13
2022-10-19T08:56:50.077Z,5.15
2022-10-19T08:59:36.496Z,4.22
2022-10-19T09:02:14.347Z,4.80
2022-10-19T09:04:47.932Z,5.03
2022-10-19T09:07:21.731Z,4.20
2022-10-19T09:09:59.280Z,4.32
2022-10-19T09:12:52.877Z,4.53
2022-10-19T09:15:36.476Z,4.47
2022-10-19T09:18:03.420Z,4.90
2022-10-19T09:20:38.518Z,4.63
2022-10-19T09:23:13.591Z,4.72
2022-10-19T09:25:41.156Z,4.40
2022-10-19T09:28:25.707Z,5.90
2022-10-19T09:30:59.031Z,5.22
2022-10-19T09:33:34.406Z,4.60
2022-10-19T09:36:05.030Z,4.45
2022-10-19T09:38:31.988Z,4.50
2022-10-19T09:41:08.066Z,3.92
2022-10-19T09:44:43.836Z,4.87
2022-10-19T09:47:29.132Z,4.90
2022-10-19T09:50:08.719Z,4.90
2022-10-19T09:52:39.150Z,4.70
2022-10-19T09:55:19.817Z,4.82
2022-10-19T09:57:49.312Z,4.03
2022-10-19T10:00:22.608Z,4.65
2022-10-19T10:02:52.806Z,4.50
2022-10-19T10:05:26.052Z,4.75
2022-10-19T10:07:55.509Z,4.97
2022-10-19T10:10:30.507Z,4.50
2022-10-19T10:13:00.263Z,4.80
2022-10-19T10:15:35.536Z,4.65
2022-10-19T10:18:03.151Z,4.18
2022-10-19T10:20:32.676Z,4.90
2022-10-19T10:23:03.082Z,4.22
2022-10-19T10:25:33.246Z,4.90
2022-10-19T10:28:11.486Z,4.47
2022-10-19T10:30:38.349Z,4.70
2022-10-19T10:33:15.866Z,4.72
2022-10-19T10:35:58.038Z,4.45
2022-10-19T10:38:29.062Z,4.82
2022-10-19T10:41:01.296Z,5.25
2022-10-19T10:43:32.391Z,4.13
2022-10-19T10:46:16.865Z,4.35
2022-10-19T10:48:53.450Z,4.80
2022-10-19T10:51:29.330Z,5.15
2022-10-19T10:54:09.731Z,4.95
2022-10-19T10:56:40.595Z,4.70
2022-10-19T10:59:22.208Z,4.43
2022-10-19T11:02:02.647Z,4.55
2022-10-19T11:04:37.042Z,4.72
2022-10-19T11:07:17.395Z,5.43
2022-10-19T11:09:51.150Z,4.93
2022-10-19T11:12:24.106Z,4.47
2022-10-19T11:15:02.197Z,4.85
2022-10-19T11:17:33.414Z,4.68
2022-10-19T11:20:00.682Z,4.25
2022-10-19T11:22:28.892Z,4.70
2022-10-19T11:25:16.324Z,5.03
2022-10-19T11:27:51.808Z,4.95
2022-10-19T11:30:21.986Z,4.40
2022-10-19T11:33:06.892Z,5.53
2022-10-19T11:35:44.645Z,4.50
2022-10-19T11:38:30.436Z,4.68
2022-10-19T11:41:18.144Z,5.47
2022-10-19T11:43:56.277Z,4.63
2022-10-19T11:46:33.268Z,4.50
2022-10-19T11:49:09.922Z,4.63
2022-10-19T11:51:51.859Z,4.00
2022-10-19T11:54:43.918Z,4.25
2022-10-19T11:57:15.974Z,4.28
2022-10-19T12:00:14.496Z,4.32
2022-10-19T12:03:03.661Z,4.43
2022-10-19T12:05:43.572Z,4.47
2022-10-19T12:08:31.959Z,4.90
2022-10-19T12:11:24.120Z,4.50
2022-10-19T12:13:56.518Z,5.15
2022-10-19T12:16:34.689Z,4.53
2022-10-19T12:19:04.872Z,4.35
2022-10-19T12:21:39.830Z,4.95
2022-10-19T12:24:14.806Z,4.10
2022-10-19T12:26:42.727Z,4.72
2022-10-19T12:29:16.323Z,4.90
2022-10-19T12:31:45.163Z,4.07
2022-10-19T12:34:27.795Z,4.45
2022-10-19T12:36:56.136Z,4.60
2022-10-19T12:39:23.531Z,4.13
2022-10-19T12:41:56.973Z,4.32
2022-10-19T12:44:28.281Z,4.70
2022-10-19T12:47:05.673Z,4.22
2022-10-19T12:49:34.204Z,4.55
2022-10-19T12:52:02.057Z,4.50
2022-10-19T12:54:32.648Z,3.58
2022-10-19T12:57:02.238Z,4.85
2022-10-19T12:59:33.387Z,4.90
2022-10-19T13:02:02.961Z,4.80
2022-10-19T13:04:33.473Z,5.28
2022-10-19T13:07:04.327Z,4.45
2022-10-19T13:09:35.785Z,5.20
2022-10-19T13:12:18.039Z,5.20
2022-10-19T13:14:58.637Z,5.05
2022-10-19T13:20:24.869Z,4.53
2022-10-19T13:23:12.332Z,4.80
2022-10-19T13:25:41.622Z,4.88
2022-10-19T13:28:10.143Z,13.98
2022-10-19T13:30:38.537Z,4.63
2022-10-19T13:33:25.432Z,5.10
2022-10-19T13:38:29.187Z,4.32
2022-10-19T13:41:03.201Z,4.90
2022-10-19T13:43:34.042Z,4.55
2022-10-19T13:46:05.399Z,4.72
2022-10-19T13:48:51.597Z,4.78
2022-10-19T13:51:19.923Z,4.22
2022-10-19T13:54:03.367Z,4.40
2022-10-19T13:56:39.774Z,6.13
2022-10-19T14:01:50.784Z,4.20
2022-10-19T14:04:35.327Z,4.88
2022-10-19T14:07:12.182Z,4.47
2022-10-19T14:09:53.743Z,4.40
2022-10-19T14:12:27.291Z,4.78
2022-10-19T14:14:54.869Z,5.00
2022-10-19T14:17:25.694Z,5.00
2022-10-19T14:19:55.498Z,4.47
2022-10-19T14:22:33.997Z,5.47
2022-10-19T14:25:06.387Z,4.30
2022-10-19T14:27:34.835Z,4.38
2022-10-19T14:30:02.810Z,4.75
2022-10-19T14:32:33.295Z,3.83
2022-10-19T14:35:18.070Z,4.22
2022-10-19T14:37:45.617Z,4.57
2022-10-19T14:40:26.808Z,4.22
2022-10-19T14:42:57.413Z,4.30
2022-10-19T14:45:29.707Z,4.35
2022-10-19T14:48:03.945Z,4.68
2022-10-19T14:50:41.083Z,16.33
2022-10-19T14:53:27.502Z,4.07
2022-10-19T14:55:58.548Z,4.57
2022-10-19T14:58:32.406Z,5.15
2022-10-19T15:00:59.402Z,5.13
2022-10-19T15:03:28.798Z,4.63
2022-10-19T15:06:02.213Z,4.97
2022-10-19T15:08:32.762Z,4.00
2022-10-19T15:10:59.997Z,5.53
2022-10-19T15:13:35.596Z,5.88
2022-10-19T15:16:02.834Z,4.90
2022-10-19T15:18:49.673Z,5.57
2022-10-19T15:21:20.887Z,4.70
2022-10-19T15:23:51.516Z,4.97
2022-10-19T15:26:18.892Z,5.30
2022-10-19T15:28:46.527Z,5.20
2022-10-19T15:31:17.528Z,5.32
2022-10-19T15:33:50.639Z,5.18
2022-10-19T15:36:20.614Z,4.75
2022-10-19T15:38:50.499Z,6.30
2022-10-19T15:41:21.134Z,5.85
2022-10-19T15:43:54.070Z,6.25
2022-10-19T15:46:29.035Z,5.93
2022-10-19T15:49:00.742Z,6.63
2022-10-19T15:51:28.588Z,6.53
2022-10-19T15:54:06.253Z,6.25
2022-10-19T15:56:39.371Z,6.25
2022-10-19T15:59:12.775Z,6.20
2022-10-19T16:01:39.931Z,7.07
2022-10-19T16:04:07.209Z,7.13
2022-10-19T16:06:36.767Z,6.57
2022-10-19T16:09:04.669Z,6.10
2022-10-19T16:11:34.011Z,6.70
2022-10-19T16:14:01.734Z,7.05
2022-10-19T16:16:32.003Z,6.38
2022-10-19T16:19:03.019Z,7.07
2022-10-19T16:21:34.521Z,5.80
2022-10-19T16:24:01.932Z,7.07
2022-10-19T16:26:29.414Z,6.90
2022-10-19T16:28:56.657Z,6.90
2022-10-19T16:31:24.485Z,6.97
2022-10-19T16:33:51.833Z,7.40
2022-10-19T16:36:20.700Z,6.65
2022-10-19T16:38:48.582Z,7.05
2022-10-19T16:41:16.750Z,7.30
2022-10-19T16:43:44.437Z,7.07
2022-10-19T16:46:12.223Z,7.32
2022-10-19T16:48:39.582Z,7.38
2022-10-19T16:51:07.366Z,7.47
2022-10-19T16:53:35.387Z,7.10
2022-10-19T16:56:08.786Z,7.60
2022-10-19T16:58:37.466Z,6.93
2022-10-19T17:01:10.744Z,7.50
2022-10-19T17:03:38.644Z,7.80
2022-10-19T17:06:07.869Z,7.43
2022-10-19T17:09:02.365Z,7.28
2022-10-19T17:11:27.952Z,7.53
2022-10-19T17:13:57.265Z,7.45
2022-10-19T17:16:26.108Z,7.43
2022-10-19T17:18:56.746Z,7.57
2022-10-19T17:21:27.387Z,7.32
2022-10-19T17:23:57.795Z,8.02
2022-10-19T17:26:27.553Z,7.72
2022-10-19T17:28:55.872Z,6.90
2022-10-19T17:31:23.614Z,7.82
2022-10-19T17:33:51.502Z,6.88
2022-10-19T17:36:28.693Z,7.85
2022-10-19T17:38:57.610Z,7.65
2022-10-19T17:41:25.504Z,8.65
2022-10-19T17:43:53.393Z,7.78
2022-10-19T17:46:23.544Z,8.88
2022-10-19T17:48:50.930Z,9.02
2022-10-19T17:51:21.889Z,8.00
2022-10-19T17:53:49.374Z,8.15
2022-10-19T17:56:20.411Z,7.68
2022-10-19T17:58:48.807Z,8.70
2022-10-19T18:01:19.112Z,9.23
2022-10-19T18:03:46.413Z,8.77
2022-10-19T18:06:16.613Z,8.90
2022-10-19T18:08:46.756Z,8.77
2022-10-19T18:11:24.436Z,9.02
2022-10-19T18:13:52.867Z,9.27
2022-10-19T18:16:25.718Z,9.02
2022-10-19T18:18:56.660Z,9.60
2022-10-19T18:21:26.808Z,9.30
2022-10-19T18:23:56.108Z,9.93
2022-10-19T18:26:26.046Z,10.32
2022-10-19T18:28:54.548Z,9.77
2022-10-19T18:31:29.739Z,9.38
2022-10-19T18:34:16.165Z,10.10
2022-10-19T18:36:44.009Z,9.35
2022-10-19T18:39:12.797Z,10.20
2022-10-19T18:41:42.694Z,9.23
2022-10-19T18:44:13.571Z,10.35
2022-10-19T18:46:42.120Z,9.98
2022-10-19T18:49:11.413Z,9.98
2022-10-19T18:51:39.055Z,10.75
2022-10-19T18:54:06.364Z,10.95
2022-10-19T18:56:33.813Z,11.35
2022-10-19T18:59:01.634Z,12.18
2022-10-19T19:01:29.580Z,12.38
2022-10-19T19:04:01.816Z,13.70
2022-10-19T19:06:30.468Z,13.32
2022-10-19T19:08:59.886Z,13.80
2022-10-19T19:11:32.932Z,14.65
2022-10-19T19:14:07.561Z,13.07
2022-10-19T19:16:39.278Z,13.82
2022-10-19T19:19:07.227Z,13.32
2022-10-19T19:21:36.716Z,12.40
2022-10-19T19:24:06.850Z,13.23
2022-10-19T19:26:55.180Z,13.52
2022-10-19T19:29:23.354Z,13.13
2022-10-19T19:31:51.633Z,13.35
2022-10-19T19:34:19.069Z,12.68
2022-10-19T19:36:52.539Z,13.23
2022-10-19T19:39:21.483Z,13.52
2022-10-19T19:41:50.735Z,13.40
2022-10-19T19:44:19.171Z,14.48
2022-10-19T19:46:46.916Z,14.40
2022-10-19T19:49:15.585Z,13.27
2022-10-19T19:51:43.640Z,12.82
2022-10-19T19:54:11.890Z,14.00
2022-10-19T19:56:40.300Z,14.10
2022-10-19T19:59:07.965Z,13.52
2022-10-19T20:01:37.826Z,13.88
2022-10-19T20:04:06.957Z,14.38
2022-10-19T20:06:35.617Z,15.38
2022-10-19T20:09:03.656Z,14.43
2022-10-19T20:11:31.017Z,15.13
2022-10-19T20:13:58.883Z,15.52
2022-10-19T20:16:29.472Z,14.93
2022-10-19T20:19:02.401Z,15.45
2022-10-19T20:21:32.058Z,15.27
2022-10-19T20:24:00.057Z,15.05
2022-10-19T20:26:30.362Z,16.40
2022-10-19T20:29:02.528Z,16.25
2022-10-19T20:31:30.624Z,15.98
2022-10-19T20:33:58.067Z,15.32
2022-10-19T20:36:27.000Z,15.57
2022-10-19T20:38:56.909Z,15.82
2022-10-19T20:41:27.640Z,15.55
2022-10-19T20:43:56.415Z,15.82
2022-10-19T20:46:26.830Z,14.27
2022-10-19T20:48:56.487Z,16.00
2022-10-19T20:51:30.832Z,16.83
2022-10-19T20:54:01.098Z,15.55
2022-10-19T20:56:32.969Z,16.88
2022-10-19T21:01:37.469Z,16.27
2022-10-19T21:04:07.094Z,16.50
2022-10-19T21:06:38.067Z,16.33
2022-10-19T21:09:05.921Z,17.17
2022-10-19T21:11:35.557Z,16.70
2022-10-19T21:14:04.951Z,17.20
2022-10-19T21:16:37.946Z,17.98
2022-10-19T21:19:07.863Z,17.75
2022-10-19T21:21:37.379Z,16.58
2022-10-19T21:24:07.920Z,16.77
2022-10-19T21:26:36.153Z,17.15
2022-10-19T21:29:04.474Z,17.95
2022-10-19T21:31:32.049Z,18.17
2022-10-19T21:33:59.160Z,17.40
2022-10-19T21:36:26.268Z,18.40
2022-10-19T21:38:52.774Z,17.42
2022-10-19T21:41:25.325Z,17.85
2022-10-19T21:43:53.421Z,18.30
2022-10-19T21:46:22.530Z,18.20
2022-10-19T21:48:50.137Z,18.23
2022-10-19T21:51:20.855Z,19.95
2022-10-19T21:53:47.434Z,19.17
2022-10-19T21:56:15.150Z,18.70
2022-10-19T21:58:49.487Z,18.40
2022-10-19T22:01:17.907Z,19.95
2022-10-19T22:03:44.570Z,20.15
2022-10-19T22:06:12.352Z,20.15
2022-10-19T22:08:40.482Z,20.70
2022-10-19T22:11:09.457Z,19.52
2022-10-19T22:13:36.462Z,19.27
2022-10-19T22:16:08.575Z,19.67
2022-10-19T22:18:35.290Z,20.15
2022-10-19T22:21:07.225Z,20.60
2022-10-19T22:23:33.809Z,20.05
2022-10-19T22:26:00.534Z,20.27
2022-10-19T22:28:27.801Z,19.98
2022-10-19T22:30:58.947Z,20.10
2022-10-19T22:33:25.983Z,19.17
2022-10-19T22:35:56.718Z,20.23
2022-10-19T22:38:23.940Z,20.02
2022-10-19T22:40:50.387Z,19.42
2022-10-19T22:43:17.869Z,20.75
2022-10-19T22:45:47.982Z,21.45
2022-10-19T22:48:15.972Z,19.45
2022-10-19T22:50:42.552Z,19.92
2022-10-19T22:53:09.380Z,20.98
2022-10-19T22:55:36.385Z,21.33
2022-10-19T22:58:04.184Z,21.20
2022-10-19T23:00:30.810Z,20.75
2022-10-19T23:02:57.643Z,22.73
2022-10-19T23:05:24.308Z,20.73
2022-10-19T23:07:50.816Z,20.35
2022-10-19T23:10:17.445Z,21.58
2022-10-19T23:12:43.939Z,22.25
2022-10-19T23:15:10.692Z,21.48
2022-10-19T23:17:37.541Z,26.08
2022-10-19T23:20:04.674Z,25.38
2022-10-19T23:22:31.151Z,21.15
2022-10-19T23:24:57.606Z,21.27
2022-10-19T23:27:24.082Z,20.08
2022-10-19T23:29:50.542Z,19.88
2022-10-19T23:32:17.005Z,19.25
2022-10-19T23:34:46.014Z,19.35
2022-10-19T23:37:14.976Z,21.55
2022-10-19T23:39:41.635Z,19.77
2022-10-19T23:42:08.106Z,19.50
2022-10-19T23:44:34.562Z,20.67
2022-10-19T23:47:01.046Z,20.83
2022-10-19T23:49:27.555Z,21.23
2022-10-19T23:51:54.024Z,22.00
2022-10-19T23:54:20.490Z,21.75
2022-10-19T23:56:47.043Z,20.38
2022-10-19T23:59:13.546Z,21.02
